TAM3837 SBSR-SBGR
Flight info
| Callsign | TAM3837 |
|---|---|
| Flight time | 0h 42m |
| Altitude | 31000 |
| Route | UPONA DCT OBLUG UZ42 ZARES |
| Aircraft | A320/M-SDE3FGHIRWY/LB1 |
Departure
| Time | 2026-05-03 21:43 |
|---|---|
| Airport | Prof. Eribelto Manoel Reino State Airport (SBSR) |
Arrival
| Time | 2026-05-03 22:26 |
|---|---|
| Airport | São Paulo/Guarulhos–Governor André Franco Montoro International Airport (SBGR) |
| Time | Latitude | Longitude | Altitude | Speed | Heading |
|---|---|---|---|---|---|
| 2026-05-03 21:09 | -20.81263 | -49.40393 | 1747 ft | 0 kts | 321° |
| 2026-05-03 21:34 | -20.81265 | -49.40391 | 1747 ft | 2 kts | 321° |
| 2026-05-03 21:34 | -20.81277 | -49.40381 | 1747 ft | 2 kts | 321° |
| 2026-05-03 21:34 | -20.81289 | -49.40371 | 1747 ft | 2 kts | 321° |
| 2026-05-03 21:35 | -20.81301 | -49.40361 | 1747 ft | 2 kts | 322° |
| 2026-05-03 21:35 | -20.81312 | -49.40352 | 1747 ft | 0 kts | 321° |
| 2026-05-03 21:35 | -20.81320 | -49.40344 | 1747 ft | 2 kts | 296° |
| 2026-05-03 21:35 | -20.81323 | -49.40329 | 1747 ft | 2 kts | 262° |
| 2026-05-03 21:36 | -20.81319 | -49.40316 | 1747 ft | 0 kts | 234° |
| 2026-05-03 21:36 | -20.81315 | -49.40311 | 1747 ft | 1 kts | 230° |
| 2026-05-03 21:36 | -20.81314 | -49.40310 | 1747 ft | 0 kts | 230° |
| 2026-05-03 21:38 | -20.81339 | -49.40344 | 1747 ft | 10 kts | 232° |
| 2026-05-03 21:38 | -20.81388 | -49.40409 | 1748 ft | 10 kts | 231° |
| 2026-05-03 21:38 | -20.81433 | -49.40469 | 1748 ft | 9 kts | 231° |
| 2026-05-03 21:39 | -20.81478 | -49.40528 | 1750 ft | 10 kts | 231° |
| 2026-05-03 21:39 | -20.81521 | -49.40586 | 1752 ft | 8 kts | 231° |
| 2026-05-03 21:39 | -20.81527 | -49.40643 | 1752 ft | 9 kts | 306° |
| 2026-05-03 21:39 | -20.81517 | -49.40702 | 1753 ft | 9 kts | 236° |
| 2026-05-03 21:40 | -20.81567 | -49.40771 | 1755 ft | 11 kts | 232° |
| 2026-05-03 21:40 | -20.81614 | -49.40833 | 1757 ft | 11 kts | 231° |
| 2026-05-03 21:40 | -20.81675 | -49.40913 | 1759 ft | 14 kts | 232° |
| 2026-05-03 21:40 | -20.81732 | -49.40991 | 1762 ft | 11 kts | 231° |
| 2026-05-03 21:41 | -20.81787 | -49.41063 | 1764 ft | 16 kts | 231° |
| 2026-05-03 21:41 | -20.81858 | -49.41153 | 1768 ft | 14 kts | 228° |
| 2026-05-03 21:41 | -20.81919 | -49.41224 | 1770 ft | 11 kts | 227° |
| 2026-05-03 21:41 | -20.81972 | -49.41282 | 1772 ft | 12 kts | 223° |
| 2026-05-03 21:42 | -20.82047 | -49.41302 | 1773 ft | 10 kts | 173° |
| 2026-05-03 21:42 | -20.82118 | -49.41291 | 1774 ft | 9 kts | 169° |
| 2026-05-03 21:42 | -20.82153 | -49.41283 | 1774 ft | 2 kts | 92° |
| 2026-05-03 21:42 | -20.82147 | -49.41273 | 1774 ft | 4 kts | 49° |
| 2026-05-03 21:43 | -20.81942 | -49.41003 | 1767 ft | 90 kts | 51° |
| 2026-05-03 21:43 | -20.81377 | -49.40254 | 1769 ft | 161 kts | 52° |
| 2026-05-03 21:43 | -20.80656 | -49.39333 | 2493 ft | 161 kts | 52° |
| 2026-05-03 21:43 | -20.79932 | -49.38472 | 3033 ft | 163 kts | 51° |
| 2026-05-03 21:44 | -20.79116 | -49.37535 | 3358 ft | 181 kts | 51° |
| 2026-05-03 21:44 | -20.78221 | -49.36505 | 3720 ft | 197 kts | 51° |
| 2026-05-03 21:44 | -20.77239 | -49.35360 | 4029 ft | 220 kts | 51° |
| 2026-05-03 21:44 | -20.76437 | -49.33975 | 4705 ft | 221 kts | 77° |
| 2026-05-03 21:45 | -20.76431 | -49.32374 | 5467 ft | 223 kts | 105° |
| 2026-05-03 21:45 | -20.77255 | -49.30916 | 5943 ft | 244 kts | 135° |
| 2026-05-03 21:45 | -20.78607 | -49.29713 | 6447 ft | 262 kts | 137° |
| 2026-05-03 21:45 | -20.80036 | -49.28425 | 7064 ft | 275 kts | 137° |
| 2026-05-03 21:46 | -20.81501 | -49.27092 | 7837 ft | 280 kts | 137° |
| 2026-05-03 21:46 | -20.82976 | -49.25745 | 8595 ft | 284 kts | 138° |
| 2026-05-03 21:46 | -20.84485 | -49.24369 | 9320 ft | 288 kts | 137° |
| 2026-05-03 21:46 | -20.86015 | -49.22971 | 10047 ft | 293 kts | 137° |
| 2026-05-03 21:47 | -20.87569 | -49.21552 | 10648 ft | 302 kts | 138° |
| 2026-05-03 21:47 | -20.89206 | -49.20054 | 11057 ft | 316 kts | 138° |
| 2026-05-03 21:47 | -20.90895 | -49.18509 | 11628 ft | 322 kts | 138° |
| 2026-05-03 21:47 | -20.92603 | -49.16943 | 12273 ft | 325 kts | 139° |
| 2026-05-03 21:48 | -20.94329 | -49.15364 | 12887 ft | 329 kts | 139° |
| 2026-05-03 21:48 | -20.96076 | -49.13764 | 13476 ft | 333 kts | 139° |
| 2026-05-03 21:48 | -20.97843 | -49.12145 | 14065 ft | 336 kts | 140° |
| 2026-05-03 21:48 | -20.99623 | -49.10513 | 14641 ft | 339 kts | 140° |
| 2026-05-03 21:49 | -21.01423 | -49.08863 | 15198 ft | 342 kts | 140° |
| 2026-05-03 21:49 | -21.03211 | -49.07225 | 15752 ft | 344 kts | 140° |
| 2026-05-03 21:49 | -21.05041 | -49.05547 | 16298 ft | 347 kts | 141° |
| 2026-05-03 21:49 | -21.06879 | -49.03861 | 16845 ft | 349 kts | 141° |
| 2026-05-03 21:50 | -21.08728 | -49.02163 | 17378 ft | 352 kts | 141° |
| 2026-05-03 21:50 | -21.10607 | -49.00436 | 17889 ft | 355 kts | 141° |
| 2026-05-03 21:50 | -21.12487 | -48.98708 | 18378 ft | 358 kts | 142° |
| 2026-05-03 21:50 | -21.14388 | -48.96961 | 18859 ft | 362 kts | 142° |
| 2026-05-03 21:51 | -21.16305 | -48.95200 | 19353 ft | 364 kts | 142° |
| 2026-05-03 21:51 | -21.18243 | -48.93418 | 19833 ft | 368 kts | 142° |
| 2026-05-03 21:51 | -21.20259 | -48.91725 | 20276 ft | 368 kts | 150° |
| 2026-05-03 21:51 | -21.22507 | -48.90418 | 20738 ft | 366 kts | 161° |
| 2026-05-03 21:52 | -21.24873 | -48.89523 | 21192 ft | 366 kts | 167° |
| 2026-05-03 21:52 | -21.27326 | -48.88744 | 21623 ft | 369 kts | 168° |
| 2026-05-03 21:52 | -21.29807 | -48.87976 | 22057 ft | 372 kts | 169° |
| 2026-05-03 21:52 | -21.32303 | -48.87201 | 22511 ft | 374 kts | 169° |
| 2026-05-03 21:53 | -21.34815 | -48.86415 | 22962 ft | 376 kts | 169° |
| 2026-05-03 21:53 | -21.37344 | -48.85621 | 23378 ft | 379 kts | 169° |
| 2026-05-03 21:53 | -21.39892 | -48.84816 | 23792 ft | 382 kts | 169° |
| 2026-05-03 21:53 | -21.42457 | -48.84004 | 24205 ft | 385 kts | 169° |
| 2026-05-03 21:54 | -21.45039 | -48.83169 | 24607 ft | 390 kts | 166° |
| 2026-05-03 21:54 | -21.47528 | -48.81897 | 24973 ft | 402 kts | 155° |
| 2026-05-03 21:54 | -21.49906 | -48.80282 | 25369 ft | 406 kts | 152° |
| 2026-05-03 21:54 | -21.52285 | -48.78605 | 25732 ft | 410 kts | 152° |
| 2026-05-03 21:55 | -21.54689 | -48.76933 | 26118 ft | 413 kts | 153° |
| 2026-05-03 21:55 | -21.57123 | -48.75270 | 26528 ft | 414 kts | 153° |
| 2026-05-03 21:55 | -21.59565 | -48.73623 | 27013 ft | 414 kts | 154° |
| 2026-05-03 21:55 | -21.61985 | -48.72005 | 27401 ft | 417 kts | 154° |
| 2026-05-03 21:56 | -21.64461 | -48.70360 | 27765 ft | 420 kts | 154° |
| 2026-05-03 21:56 | -21.66960 | -48.68704 | 28114 ft | 423 kts | 154° |
| 2026-05-03 21:56 | -21.69479 | -48.67036 | 28480 ft | 426 kts | 155° |
| 2026-05-03 21:56 | -21.72006 | -48.65362 | 28933 ft | 426 kts | 155° |
| 2026-05-03 21:57 | -21.74531 | -48.63689 | 29407 ft | 426 kts | 155° |
| 2026-05-03 21:57 | -21.77055 | -48.62017 | 29874 ft | 426 kts | 155° |
| 2026-05-03 21:57 | -21.79582 | -48.60343 | 30277 ft | 427 kts | 155° |
| 2026-05-03 21:57 | -21.82121 | -48.58661 | 30646 ft | 429 kts | 155° |
| 2026-05-03 21:58 | -21.84669 | -48.56972 | 31010 ft | 431 kts | 155° |
| 2026-05-03 21:58 | -21.87249 | -48.55265 | 31098 ft | 439 kts | 155° |
| 2026-05-03 21:58 | -21.92462 | -48.51811 | 31104 ft | 444 kts | 155° |
| 2026-05-03 21:59 | -21.97737 | -48.48303 | 31109 ft | 445 kts | 155° |
| 2026-05-03 21:59 | -22.03018 | -48.44787 | 31112 ft | 445 kts | 155° |
| 2026-05-03 22:00 | -22.08291 | -48.41278 | 31113 ft | 445 kts | 155° |
| 2026-05-03 22:00 | -22.13571 | -48.37761 | 31119 ft | 445 kts | 155° |
| 2026-05-03 22:01 | -22.18830 | -48.34256 | 31120 ft | 445 kts | 155° |
| 2026-05-03 22:01 | -22.23949 | -48.30841 | 31124 ft | 445 kts | 155° |
| 2026-05-03 22:02 | -22.29190 | -48.27340 | 31125 ft | 445 kts | 155° |
| 2026-05-03 22:02 | -22.34477 | -48.23805 | 31131 ft | 446 kts | 155° |
| 2026-05-03 22:03 | -22.39768 | -48.20267 | 31135 ft | 447 kts | 155° |
| 2026-05-03 22:03 | -22.45052 | -48.16727 | 31141 ft | 446 kts | 155° |
| 2026-05-03 22:04 | -22.50330 | -48.13190 | 31143 ft | 446 kts | 155° |
| 2026-05-03 22:04 | -22.55564 | -48.09677 | 31028 ft | 442 kts | 155° |
| 2026-05-03 22:05 | -22.58179 | -48.07919 | 30430 ft | 444 kts | 155° |
| 2026-05-03 22:05 | -22.60821 | -48.06147 | 29586 ft | 449 kts | 155° |
| 2026-05-03 22:05 | -22.63489 | -48.04357 | 28803 ft | 453 kts | 155° |
| 2026-05-03 22:05 | -22.66172 | -48.02554 | 28112 ft | 455 kts | 155° |
| 2026-05-03 22:06 | -22.68862 | -48.00743 | 27460 ft | 455 kts | 155° |
| 2026-05-03 22:06 | -22.71553 | -47.98930 | 26874 ft | 453 kts | 154° |
| 2026-05-03 22:06 | -22.74178 | -47.97059 | 26419 ft | 452 kts | 148° |
| 2026-05-03 22:06 | -22.76496 | -47.94752 | 25962 ft | 454 kts | 137° |
| 2026-05-03 22:07 | -22.78400 | -47.92014 | 25496 ft | 456 kts | 125° |
| 2026-05-03 22:07 | -22.79924 | -47.89011 | 25025 ft | 453 kts | 121° |
| 2026-05-03 22:07 | -22.81354 | -47.86046 | 24576 ft | 448 kts | 121° |
| 2026-05-03 22:07 | -22.82791 | -47.83070 | 24109 ft | 444 kts | 121° |
| 2026-05-03 22:08 | -22.84209 | -47.80129 | 23674 ft | 438 kts | 121° |
| 2026-05-03 22:08 | -22.85609 | -47.77217 | 23247 ft | 433 kts | 121° |
| 2026-05-03 22:08 | -22.86991 | -47.74339 | 22805 ft | 429 kts | 121° |
| 2026-05-03 22:08 | -22.88358 | -47.71489 | 22359 ft | 425 kts | 122° |
| 2026-05-03 22:09 | -22.89713 | -47.68662 | 21906 ft | 421 kts | 122° |
| 2026-05-03 22:09 | -22.91054 | -47.65863 | 21449 ft | 417 kts | 121° |
| 2026-05-03 22:09 | -22.92386 | -47.63086 | 20978 ft | 414 kts | 121° |
| 2026-05-03 22:10 | -22.95012 | -47.57595 | 20087 ft | 407 kts | 121° |
| 2026-05-03 22:10 | -22.96309 | -47.54878 | 19641 ft | 404 kts | 121° |
| 2026-05-03 22:10 | -22.97596 | -47.52185 | 19202 ft | 401 kts | 121° |
| 2026-05-03 22:10 | -22.98869 | -47.49515 | 18784 ft | 397 kts | 121° |
| 2026-05-03 22:11 | -23.00117 | -47.46901 | 18365 ft | 394 kts | 121° |
| 2026-05-03 22:11 | -23.01368 | -47.44273 | 17944 ft | 390 kts | 121° |
| 2026-05-03 22:11 | -23.02609 | -47.41668 | 17516 ft | 387 kts | 120° |
| 2026-05-03 22:11 | -23.03840 | -47.39085 | 17103 ft | 384 kts | 120° |
| 2026-05-03 22:12 | -23.05060 | -47.36521 | 16688 ft | 381 kts | 120° |
| 2026-05-03 22:12 | -23.06266 | -47.33987 | 16261 ft | 379 kts | 119° |
| 2026-05-03 22:12 | -23.07480 | -47.31432 | 15820 ft | 376 kts | 119° |
| 2026-05-03 22:12 | -23.08666 | -47.28930 | 15391 ft | 373 kts | 119° |
| 2026-05-03 22:13 | -23.09849 | -47.26438 | 14985 ft | 370 kts | 119° |
| 2026-05-03 22:13 | -23.11025 | -47.23958 | 14583 ft | 367 kts | 119° |
| 2026-05-03 22:13 | -23.12191 | -47.21501 | 14147 ft | 365 kts | 119° |
| 2026-05-03 22:13 | -23.13348 | -47.19062 | 13745 ft | 362 kts | 118° |
| 2026-05-03 22:14 | -23.14543 | -47.16670 | 13369 ft | 358 kts | 122° |
| 2026-05-03 22:14 | -23.15871 | -47.14390 | 12964 ft | 355 kts | 125° |
| 2026-05-03 22:14 | -23.17237 | -47.12161 | 12572 ft | 352 kts | 125° |
| 2026-05-03 22:14 | -23.18578 | -47.09985 | 12204 ft | 349 kts | 125° |
| 2026-05-03 22:15 | -23.19924 | -47.07801 | 11850 ft | 346 kts | 125° |
| 2026-05-03 22:15 | -23.21255 | -47.05635 | 11468 ft | 343 kts | 125° |
| 2026-05-03 22:15 | -23.22575 | -47.03484 | 11094 ft | 341 kts | 124° |
| 2026-05-03 22:15 | -23.23884 | -47.01349 | 10704 ft | 338 kts | 124° |
| 2026-05-03 22:16 | -23.25184 | -46.99225 | 10315 ft | 336 kts | 124° |
| 2026-05-03 22:16 | -23.26471 | -46.97123 | 9935 ft | 333 kts | 124° |
| 2026-05-03 22:16 | -23.27749 | -46.95034 | 9538 ft | 331 kts | 124° |
| 2026-05-03 22:16 | -23.29009 | -46.92976 | 9152 ft | 328 kts | 124° |
| 2026-05-03 22:17 | -23.30270 | -46.90912 | 8745 ft | 327 kts | 123° |
| 2026-05-03 22:17 | -23.31513 | -46.88876 | 8487 ft | 320 kts | 123° |
| 2026-05-03 22:17 | -23.32434 | -46.87366 | 8355 ft | 313 kts | 123° |
| 2026-05-03 22:17 | -23.33606 | -46.85445 | 8175 ft | 301 kts | 123° |
| 2026-05-03 22:18 | -23.34733 | -46.83595 | 7922 ft | 284 kts | 122° |
| 2026-05-03 22:18 | -23.35721 | -46.81974 | 7680 ft | 269 kts | 122° |
| 2026-05-03 22:18 | -23.36249 | -46.81107 | 7547 ft | 262 kts | 122° |
| 2026-05-03 22:18 | -23.37476 | -46.79094 | 7237 ft | 254 kts | 122° |
| 2026-05-03 22:19 | -23.38436 | -46.77515 | 6991 ft | 250 kts | 121° |
| 2026-05-03 22:19 | -23.39391 | -46.75947 | 6745 ft | 248 kts | 121° |
| 2026-05-03 22:19 | -23.40347 | -46.74374 | 6501 ft | 245 kts | 121° |
| 2026-05-03 22:19 | -23.41265 | -46.72866 | 6270 ft | 234 kts | 121° |
| 2026-05-03 22:20 | -23.42145 | -46.71419 | 6052 ft | 221 kts | 121° |
| 2026-05-03 22:20 | -23.42968 | -46.70070 | 5866 ft | 209 kts | 121° |
| 2026-05-03 22:20 | -23.43773 | -46.68780 | 5688 ft | 203 kts | 122° |
| 2026-05-03 22:20 | -23.44485 | -46.67647 | 5551 ft | 197 kts | 122° |
| 2026-05-03 22:21 | -23.44787 | -46.67168 | 5500 ft | 194 kts | 122° |
| 2026-05-03 22:21 | -23.45589 | -46.65890 | 5358 ft | 187 kts | 122° |
| 2026-05-03 22:21 | -23.46235 | -46.64862 | 5235 ft | 181 kts | 122° |
| 2026-05-03 22:21 | -23.46920 | -46.63770 | 5184 ft | 171 kts | 122° |
| 2026-05-03 22:22 | -23.47440 | -46.62637 | 4948 ft | 165 kts | 96° |
| 2026-05-03 22:22 | -23.47339 | -46.61417 | 4753 ft | 157 kts | 77° |
| 2026-05-03 22:22 | -23.47049 | -46.60297 | 4561 ft | 153 kts | 74° |
| 2026-05-03 22:22 | -23.46730 | -46.59193 | 4375 ft | 153 kts | 74° |
| 2026-05-03 22:23 | -23.46416 | -46.58089 | 4187 ft | 152 kts | 75° |
| 2026-05-03 22:23 | -23.46114 | -46.56990 | 4005 ft | 150 kts | 76° |
| 2026-05-03 22:23 | -23.45825 | -46.55920 | 3807 ft | 144 kts | 76° |
| 2026-05-03 22:23 | -23.45547 | -46.54891 | 3612 ft | 142 kts | 77° |
| 2026-05-03 22:24 | -23.45268 | -46.53856 | 3424 ft | 142 kts | 77° |
| 2026-05-03 22:24 | -23.44991 | -46.52826 | 3235 ft | 141 kts | 78° |
| 2026-05-03 22:24 | -23.44712 | -46.51805 | 3059 ft | 141 kts | 77° |
| 2026-05-03 22:24 | -23.44440 | -46.50780 | 2878 ft | 140 kts | 77° |
| 2026-05-03 22:25 | -23.44164 | -46.49761 | 2703 ft | 140 kts | 76° |
| 2026-05-03 22:25 | -23.43895 | -46.48754 | 2521 ft | 140 kts | 76° |
| 2026-05-03 22:25 | -23.43633 | -46.47778 | 2469 ft | 114 kts | 74° |
| 2026-05-03 22:25 | -23.43467 | -46.47154 | 2469 ft | 50 kts | 73° |
| 2026-05-03 22:26 | -23.43362 | -46.46927 | 2469 ft | 29 kts | 49° |
| 2026-05-03 22:26 | -23.43226 | -46.46782 | 2469 ft | 23 kts | 44° |
| 2026-05-03 22:26 | -23.43092 | -46.46720 | 2469 ft | 20 kts | 348° |
| 2026-05-03 22:26 | -23.42958 | -46.46761 | 2469 ft | 19 kts | 343° |
| 2026-05-03 22:27 | -23.42835 | -46.46800 | 2469 ft | 17 kts | 344° |
| 2026-05-03 22:27 | -23.42779 | -46.46884 | 2469 ft | 15 kts | 255° |
| 2026-05-03 22:27 | -23.42810 | -46.46992 | 2469 ft | 14 kts | 253° |
| 2026-05-03 22:27 | -23.42837 | -46.47095 | 2469 ft | 13 kts | 254° |
| 2026-05-03 22:28 | -23.42873 | -46.47224 | 2469 ft | 22 kts | 253° |
| 2026-05-03 22:28 | -23.42915 | -46.47380 | 2469 ft | 20 kts | 253° |
| 2026-05-03 22:28 | -23.42954 | -46.47525 | 2469 ft | 18 kts | 254° |
| 2026-05-03 22:28 | -23.42989 | -46.47656 | 2469 ft | 17 kts | 253° |
| 2026-05-03 22:29 | -23.43020 | -46.47772 | 2469 ft | 13 kts | 257° |
| 2026-05-03 22:29 | -23.42963 | -46.47823 | 2469 ft | 11 kts | 349° |
| 2026-05-03 22:29 | -23.42895 | -46.47838 | 2469 ft | 9 kts | 349° |
| 2026-05-03 22:29 | -23.42840 | -46.47853 | 2469 ft | 7 kts | 321° |
| 2026-05-03 22:30 | -23.42836 | -46.47903 | 2469 ft | 6 kts | 265° |
| 2026-05-03 22:30 | -23.42838 | -46.47944 | 2469 ft | 1 kts | 266° |
| 2026-05-03 22:30 | -23.42839 | -46.47947 | 2469 ft | 0 kts | 266° |